Terminal Aerodrome Forecast
Issued by NWS

Home | Current Version | Previous Version | Text Only | Print | Product List | Glossary Off
Versions: 1 2 3 4 5 6 7 8 9 10 11 12 13 14 15 16 17 18 19 20 21 22 23 24 25 26 27

872
FTUS43 KABR 231126
TAFMBG
TAF
KMBG 231126Z 2312/2412 VRB05KT P6SM OVC200
     FM231400 04008KT P6SM OVC020
     FM231600 05012KT P6SM OVC008
     FM232100 04013G21KT P6SM OVC020
     FM240600 02015G23KT P6SM OVC035=

USA.gov is the U.S. government's official web portal to all federal, state and local government web resources and services.